sensor_id;sensor_type;location;lat;lon;timestamp;P1;durP1;ratioP1;P2;durP2;ratioP2
51358;SDS011;37448;51.588;7.248;2022-10-16T00:02:03;10.63;;;4.93;;
51358;SDS011;37448;51.588;7.248;2022-10-16T00:04:33;9.25;;;4.70;;
51358;SDS011;37448;51.588;7.248;2022-10-16T00:07:03;9.13;;;4.47;;
51358;SDS011;37448;51.588;7.248;2022-10-16T00:09:34;12.55;;;5.18;;
51358;SDS011;37448;51.588;7.248;2022-10-16T00:12:04;11.40;;;4.70;;
51358;SDS011;37448;51.588;7.248;2022-10-16T00:14:36;11.52;;;4.85;;
51358;SDS011;37448;51.588;7.248;2022-10-16T00:17:06;11.82;;;5.15;;
51358;SDS011;37448;51.588;7.248;2022-10-16T00:19:37;11.93;;;4.78;;
51358;SDS011;37448;51.588;7.248;2022-10-16T00:22:07;11.75;;;4.90;;
51358;SDS011;37448;51.588;7.248;2022-10-16T00:24:38;8.73;;;4.25;;
51358;SDS011;37448;51.588;7.248;2022-10-16T00:27:08;9.25;;;4.50;;
51358;SDS011;37448;51.588;7.248;2022-10-16T00:29:39;10.10;;;4.65;;
51358;SDS011;37448;51.588;7.248;2022-10-16T00:32:09;9.65;;;4.40;;
51358;SDS011;37448;51.588;7.248;2022-10-16T00:34:39;9.50;;;4.35;;
51358;SDS011;37448;51.588;7.248;2022-10-16T00:37:09;9.20;;;4.63;;
51358;SDS011;37448;51.588;7.248;2022-10-16T00:39:40;8.80;;;4.72;;
51358;SDS011;37448;51.588;7.248;2022-10-16T00:42:14;11.07;;;4.43;;
51358;SDS011;37448;51.588;7.248;2022-10-16T00:44:55;9.90;;;4.45;;
51358;SDS011;37448;51.588;7.248;2022-10-16T00:47:28;9.68;;;4.30;;
51358;SDS011;37448;51.588;7.248;2022-10-16T00:50:07;9.60;;;4.50;;
51358;SDS011;37448;51.588;7.248;2022-10-16T00:52:41;11.20;;;4.60;;
51358;SDS011;37448;51.588;7.248;2022-10-16T00:55:15;11.30;;;4.50;;
51358;SDS011;37448;51.588;7.248;2022-10-16T00:57:46;9.10;;;4.72;;
51358;SDS011;37448;51.588;7.248;2022-10-16T01:00:22;9.43;;;4.07;;
51358;SDS011;37448;51.588;7.248;2022-10-16T01:02:58;10.13;;;4.03;;
51358;SDS011;37448;51.588;7.248;2022-10-16T01:05:33;11.02;;;4.20;;
51358;SDS011;37448;51.588;7.248;2022-10-16T01:08:17;10.27;;;4.18;;
51358;SDS011;37448;51.588;7.248;2022-10-16T01:10:54;10.95;;;4.03;;
51358;SDS011;37448;51.588;7.248;2022-10-16T01:13:34;8.45;;;3.47;;
51358;SDS011;37448;51.588;7.248;2022-10-16T01:16:53;9.73;;;3.95;;
51358;SDS011;37448;51.588;7.248;2022-10-16T01:21:46;7.82;;;3.38;;
51358;SDS011;37448;51.588;7.248;2022-10-16T01:24:25;8.38;;;3.75;;
51358;SDS011;37448;51.588;7.248;2022-10-16T01:27:13;8.88;;;3.70;;
51358;SDS011;37448;51.588;7.248;2022-10-16T01:30:21;8.80;;;3.57;;
51358;SDS011;37448;51.588;7.248;2022-10-16T01:32:57;8.50;;;3.50;;
51358;SDS011;37448;51.588;7.248;2022-10-16T01:35:30;10.73;;;3.40;;
51358;SDS011;37448;51.588;7.248;2022-10-16T01:38:16;7.43;;;3.25;;
51358;SDS011;37448;51.588;7.248;2022-10-16T01:40:52;7.57;;;3.00;;
51358;SDS011;37448;51.588;7.248;2022-10-16T01:43:28;8.65;;;3.22;;
51358;SDS011;37448;51.588;7.248;2022-10-16T01:46:03;7.30;;;3.20;;
51358;SDS011;37448;51.588;7.248;2022-10-16T01:48:35;11.57;;;3.25;;
51358;SDS011;37448;51.588;7.248;2022-10-16T01:51:08;8.32;;;3.40;;
51358;SDS011;37448;51.588;7.248;2022-10-16T01:53:41;7.03;;;2.90;;
51358;SDS011;37448;51.588;7.248;2022-10-16T01:56:15;8.25;;;3.08;;
51358;SDS011;37448;51.588;7.248;2022-10-16T01:58:49;5.63;;;2.88;;
51358;SDS011;37448;51.588;7.248;2022-10-16T02:01:27;5.95;;;2.83;;
51358;SDS011;37448;51.588;7.248;2022-10-16T02:04:03;6.50;;;3.20;;
51358;SDS011;37448;51.588;7.248;2022-10-16T02:06:45;8.55;;;3.30;;
51358;SDS011;37448;51.588;7.248;2022-10-16T02:09:15;10.15;;;3.05;;
51358;SDS011;37448;51.588;7.248;2022-10-16T02:11:46;8.50;;;3.10;;
51358;SDS011;37448;51.588;7.248;2022-10-16T02:14:19;6.60;;;3.00;;
51358;SDS011;37448;51.588;7.248;2022-10-16T02:16:50;6.07;;;2.90;;
51358;SDS011;37448;51.588;7.248;2022-10-16T02:19:20;9.30;;;3.33;;
51358;SDS011;37448;51.588;7.248;2022-10-16T02:21:56;6.43;;;2.90;;
51358;SDS011;37448;51.588;7.248;2022-10-16T02:27:23;7.18;;;3.13;;
51358;SDS011;37448;51.588;7.248;2022-10-16T02:30:11;8.75;;;3.17;;
51358;SDS011;37448;51.588;7.248;2022-10-16T02:32:47;5.38;;;2.53;;
51358;SDS011;37448;51.588;7.248;2022-10-16T02:35:19;6.07;;;2.88;;
51358;SDS011;37448;51.588;7.248;2022-10-16T02:37:52;5.88;;;2.90;;
51358;SDS011;37448;51.588;7.248;2022-10-16T02:40:24;8.25;;;2.78;;
51358;SDS011;37448;51.588;7.248;2022-10-16T02:42:56;6.05;;;2.60;;
51358;SDS011;37448;51.588;7.248;2022-10-16T02:45:26;8.00;;;2.47;;
51358;SDS011;37448;51.588;7.248;2022-10-16T02:47:56;9.00;;;2.80;;
51358;SDS011;37448;51.588;7.248;2022-10-16T02:50:27;6.85;;;2.45;;
51358;SDS011;37448;51.588;7.248;2022-10-16T02:52:57;5.47;;;2.60;;
51358;SDS011;37448;51.588;7.248;2022-10-16T02:55:27;5.88;;;2.45;;
51358;SDS011;37448;51.588;7.248;2022-10-16T02:57:58;8.02;;;2.20;;
51358;SDS011;37448;51.588;7.248;2022-10-16T03:00:28;7.43;;;2.50;;
51358;SDS011;37448;51.588;7.248;2022-10-16T03:02:58;4.53;;;2.35;;
51358;SDS011;37448;51.588;7.248;2022-10-16T03:05:29;9.27;;;2.20;;
51358;SDS011;37448;51.588;7.248;2022-10-16T03:07:59;5.07;;;2.28;;
51358;SDS011;37448;51.588;7.248;2022-10-16T03:10:30;3.38;;;1.98;;
51358;SDS011;37448;51.588;7.248;2022-10-16T03:13:01;5.90;;;2.42;;
51358;SDS011;37448;51.588;7.248;2022-10-16T03:15:31;4.68;;;2.10;;
51358;SDS011;37448;51.588;7.248;2022-10-16T03:18:01;5.22;;;2.03;;
51358;SDS011;37448;51.588;7.248;2022-10-16T03:20:32;5.50;;;2.35;;
51358;SDS011;37448;51.588;7.248;2022-10-16T03:23:02;5.78;;;2.30;;
51358;SDS011;37448;51.588;7.248;2022-10-16T03:25:33;6.30;;;2.45;;
51358;SDS011;37448;51.588;7.248;2022-10-16T03:28:03;6.00;;;2.30;;
51358;SDS011;37448;51.588;7.248;2022-10-16T03:30:33;6.32;;;2.00;;
51358;SDS011;37448;51.588;7.248;2022-10-16T03:33:04;6.57;;;2.25;;
51358;SDS011;37448;51.588;7.248;2022-10-16T03:35:34;7.65;;;2.42;;
51358;SDS011;37448;51.588;7.248;2022-10-16T03:38:05;6.55;;;2.78;;
51358;SDS011;37448;51.588;7.248;2022-10-16T03:40:36;4.55;;;2.00;;
51358;SDS011;37448;51.588;7.248;2022-10-16T03:43:06;6.72;;;2.17;;
51358;SDS011;37448;51.588;7.248;2022-10-16T03:45:36;4.85;;;2.15;;
51358;SDS011;37448;51.588;7.248;2022-10-16T03:48:07;13.88;;;2.75;;
51358;SDS011;37448;51.588;7.248;2022-10-16T03:50:37;3.80;;;1.88;;
51358;SDS011;37448;51.588;7.248;2022-10-16T03:53:07;4.18;;;1.80;;
51358;SDS011;37448;51.588;7.248;2022-10-16T03:55:38;6.07;;;1.95;;
51358;SDS011;37448;51.588;7.248;2022-10-16T03:58:08;3.92;;;1.80;;
51358;SDS011;37448;51.588;7.248;2022-10-16T04:00:45;5.40;;;1.98;;
51358;SDS011;37448;51.588;7.248;2022-10-16T04:03:17;5.68;;;2.20;;
51358;SDS011;37448;51.588;7.248;2022-10-16T04:05:49;3.28;;;2.08;;
51358;SDS011;37448;51.588;7.248;2022-10-16T04:08:19;6.13;;;2.00;;
51358;SDS011;37448;51.588;7.248;2022-10-16T04:10:50;7.70;;;2.25;;
51358;SDS011;37448;51.588;7.248;2022-10-16T04:13:20;5.97;;;1.83;;
51358;SDS011;37448;51.588;7.248;2022-10-16T04:15:50;5.03;;;2.33;;
51358;SDS011;37448;51.588;7.248;2022-10-16T04:18:21;4.13;;;2.00;;
51358;SDS011;37448;51.588;7.248;2022-10-16T04:20:51;6.35;;;2.13;;
51358;SDS011;37448;51.588;7.248;2022-10-16T04:23:22;6.18;;;2.40;;
51358;SDS011;37448;51.588;7.248;2022-10-16T04:25:53;6.97;;;2.50;;
51358;SDS011;37448;51.588;7.248;2022-10-16T04:28:23;4.95;;;2.40;;
51358;SDS011;37448;51.588;7.248;2022-10-16T04:30:54;5.15;;;2.58;;
51358;SDS011;37448;51.588;7.248;2022-10-16T04:33:24;7.03;;;2.38;;
51358;SDS011;37448;51.588;7.248;2022-10-16T04:35:58;4.22;;;2.35;;
51358;SDS011;37448;51.588;7.248;2022-10-16T04:38:32;4.47;;;2.38;;
51358;SDS011;37448;51.588;7.248;2022-10-16T04:41:02;5.35;;;2.30;;
51358;SDS011;37448;51.588;7.248;2022-10-16T04:43:33;8.48;;;2.70;;
51358;SDS011;37448;51.588;7.248;2022-10-16T04:46:04;10.00;;;3.33;;
51358;SDS011;37448;51.588;7.248;2022-10-16T04:48:35;5.40;;;2.35;;
51358;SDS011;37448;51.588;7.248;2022-10-16T04:51:05;4.25;;;2.10;;
51358;SDS011;37448;51.588;7.248;2022-10-16T04:53:35;4.75;;;2.50;;
51358;SDS011;37448;51.588;7.248;2022-10-16T04:56:06;5.18;;;2.15;;
51358;SDS011;37448;51.588;7.248;2022-10-16T04:58:36;6.30;;;2.42;;
51358;SDS011;37448;51.588;7.248;2022-10-16T05:01:07;7.13;;;2.65;;
51358;SDS011;37448;51.588;7.248;2022-10-16T05:03:37;4.85;;;2.83;;
51358;SDS011;37448;51.588;7.248;2022-10-16T05:06:07;4.25;;;2.13;;
51358;SDS011;37448;51.588;7.248;2022-10-16T05:08:38;9.57;;;3.03;;
51358;SDS011;37448;51.588;7.248;2022-10-16T05:11:08;6.72;;;2.60;;
51358;SDS011;37448;51.588;7.248;2022-10-16T05:13:38;8.00;;;2.50;;
51358;SDS011;37448;51.588;7.248;2022-10-16T05:16:09;5.05;;;2.40;;
51358;SDS011;37448;51.588;7.248;2022-10-16T05:18:39;7.88;;;2.50;;
51358;SDS011;37448;51.588;7.248;2022-10-16T05:21:09;11.40;;;2.95;;
51358;SDS011;37448;51.588;7.248;2022-10-16T05:23:40;6.05;;;2.47;;
51358;SDS011;37448;51.588;7.248;2022-10-16T05:26:10;6.95;;;2.63;;
51358;SDS011;37448;51.588;7.248;2022-10-16T05:28:41;7.57;;;2.65;;
51358;SDS011;37448;51.588;7.248;2022-10-16T05:31:11;4.65;;;2.45;;
51358;SDS011;37448;51.588;7.248;2022-10-16T05:33:41;6.30;;;2.33;;
51358;SDS011;37448;51.588;7.248;2022-10-16T05:36:14;6.05;;;2.60;;
51358;SDS011;37448;51.588;7.248;2022-10-16T05:38:44;4.47;;;2.30;;
51358;SDS011;37448;51.588;7.248;2022-10-16T05:41:14;5.78;;;2.75;;
51358;SDS011;37448;51.588;7.248;2022-10-16T05:43:45;6.80;;;2.83;;
51358;SDS011;37448;51.588;7.248;2022-10-16T05:46:15;8.15;;;2.65;;
51358;SDS011;37448;51.588;7.248;2022-10-16T05:48:46;9.13;;;3.20;;
51358;SDS011;37448;51.588;7.248;2022-10-16T05:51:16;6.82;;;2.80;;
51358;SDS011;37448;51.588;7.248;2022-10-16T05:53:46;6.10;;;2.60;;
51358;SDS011;37448;51.588;7.248;2022-10-16T05:56:17;4.80;;;2.35;;
51358;SDS011;37448;51.588;7.248;2022-10-16T05:58:47;7.40;;;2.58;;
51358;SDS011;37448;51.588;7.248;2022-10-16T06:01:18;6.70;;;2.70;;
51358;SDS011;37448;51.588;7.248;2022-10-16T06:03:51;8.60;;;2.92;;
51358;SDS011;37448;51.588;7.248;2022-10-16T06:06:23;5.68;;;2.65;;
51358;SDS011;37448;51.588;7.248;2022-10-16T06:08:56;6.72;;;2.40;;
51358;SDS011;37448;51.588;7.248;2022-10-16T06:11:28;5.93;;;2.20;;
51358;SDS011;37448;51.588;7.248;2022-10-16T06:14:00;4.37;;;2.10;;
51358;SDS011;37448;51.588;7.248;2022-10-16T06:16:33;7.60;;;2.92;;
51358;SDS011;37448;51.588;7.248;2022-10-16T06:19:05;5.78;;;2.10;;
51358;SDS011;37448;51.588;7.248;2022-10-16T06:21:36;4.88;;;2.20;;
51358;SDS011;37448;51.588;7.248;2022-10-16T06:24:06;4.47;;;1.90;;
51358;SDS011;37448;51.588;7.248;2022-10-16T06:26:37;5.43;;;1.80;;
51358;SDS011;37448;51.588;7.248;2022-10-16T06:29:07;4.00;;;1.80;;
51358;SDS011;37448;51.588;7.248;2022-10-16T06:31:38;5.07;;;2.25;;
51358;SDS011;37448;51.588;7.248;2022-10-16T06:34:09;5.82;;;1.90;;
51358;SDS011;37448;51.588;7.248;2022-10-16T06:36:41;5.25;;;2.15;;
51358;SDS011;37448;51.588;7.248;2022-10-16T06:39:13;3.78;;;1.95;;
51358;SDS011;37448;51.588;7.248;2022-10-16T06:41:43;5.75;;;2.10;;
51358;SDS011;37448;51.588;7.248;2022-10-16T06:44:14;13.18;;;3.10;;
51358;SDS011;37448;51.588;7.248;2022-10-16T06:46:44;8.02;;;2.08;;
51358;SDS011;37448;51.588;7.248;2022-10-16T06:49:15;3.78;;;1.95;;
51358;SDS011;37448;51.588;7.248;2022-10-16T06:51:51;4.55;;;1.92;;
51358;SDS011;37448;51.588;7.248;2022-10-16T06:54:21;14.70;;;2.58;;
51358;SDS011;37448;51.588;7.248;2022-10-16T06:56:51;5.95;;;2.08;;
51358;SDS011;37448;51.588;7.248;2022-10-16T06:59:24;4.17;;;1.90;;
51358;SDS011;37448;51.588;7.248;2022-10-16T07:01:54;4.97;;;1.80;;
51358;SDS011;37448;51.588;7.248;2022-10-16T07:04:25;7.47;;;2.08;;
51358;SDS011;37448;51.588;7.248;2022-10-16T07:06:55;4.38;;;2.00;;
51358;SDS011;37448;51.588;7.248;2022-10-16T07:09:25;4.15;;;1.90;;
51358;SDS011;37448;51.588;7.248;2022-10-16T07:11:56;4.38;;;2.03;;
51358;SDS011;37448;51.588;7.248;2022-10-16T07:14:26;4.35;;;1.80;;
51358;SDS011;37448;51.588;7.248;2022-10-16T07:16:57;5.57;;;1.75;;
51358;SDS011;37448;51.588;7.248;2022-10-16T07:19:27;7.75;;;1.50;;
51358;SDS011;37448;51.588;7.248;2022-10-16T07:21:58;3.60;;;1.40;;
51358;SDS011;37448;51.588;7.248;2022-10-16T07:24:29;5.20;;;1.83;;
51358;SDS011;37448;51.588;7.248;2022-10-16T07:26:59;5.15;;;2.15;;
51358;SDS011;37448;51.588;7.248;2022-10-16T07:29:29;7.78;;;1.83;;
51358;SDS011;37448;51.588;7.248;2022-10-16T07:32:01;5.40;;;1.67;;
51358;SDS011;37448;51.588;7.248;2022-10-16T07:34:31;5.13;;;1.60;;
51358;SDS011;37448;51.588;7.248;2022-10-16T07:37:01;6.63;;;1.60;;
51358;SDS011;37448;51.588;7.248;2022-10-16T07:39:32;2.83;;;1.45;;
51358;SDS011;37448;51.588;7.248;2022-10-16T07:42:02;3.08;;;1.65;;
51358;SDS011;37448;51.588;7.248;2022-10-16T07:44:33;4.35;;;1.38;;
51358;SDS011;37448;51.588;7.248;2022-10-16T07:47:03;7.07;;;1.50;;
51358;SDS011;37448;51.588;7.248;2022-10-16T07:49:33;3.30;;;1.40;;
51358;SDS011;37448;51.588;7.248;2022-10-16T07:52:04;4.38;;;1.15;;
51358;SDS011;37448;51.588;7.248;2022-10-16T07:54:34;3.58;;;1.60;;
51358;SDS011;37448;51.588;7.248;2022-10-16T07:57:04;2.42;;;1.17;;
51358;SDS011;37448;51.588;7.248;2022-10-16T07:59:35;3.72;;;1.00;;
51358;SDS011;37448;51.588;7.248;2022-10-16T08:02:05;8.07;;;1.50;;
51358;SDS011;37448;51.588;7.248;2022-10-16T08:04:37;2.53;;;1.00;;
51358;SDS011;37448;51.588;7.248;2022-10-16T08:07:07;4.75;;;0.85;;
51358;SDS011;37448;51.588;7.248;2022-10-16T08:09:38;3.03;;;1.00;;
51358;SDS011;37448;51.588;7.248;2022-10-16T08:12:08;3.28;;;0.98;;
51358;SDS011;37448;51.588;7.248;2022-10-16T08:14:40;2.63;;;0.93;;
51358;SDS011;37448;51.588;7.248;2022-10-16T08:17:13;1.83;;;0.80;;
51358;SDS011;37448;51.588;7.248;2022-10-16T08:19:44;8.52;;;0.90;;
51358;SDS011;37448;51.588;7.248;2022-10-16T08:22:16;2.83;;;0.85;;
51358;SDS011;37448;51.588;7.248;2022-10-16T08:24:46;4.38;;;1.10;;
51358;SDS011;37448;51.588;7.248;2022-10-16T08:27:16;4.15;;;1.52;;
51358;SDS011;37448;51.588;7.248;2022-10-16T08:29:48;4.10;;;0.98;;
51358;SDS011;37448;51.588;7.248;2022-10-16T08:32:18;4.20;;;1.00;;
51358;SDS011;37448;51.588;7.248;2022-10-16T08:34:49;4.07;;;1.10;;
51358;SDS011;37448;51.588;7.248;2022-10-16T08:37:20;4.00;;;0.98;;
51358;SDS011;37448;51.588;7.248;2022-10-16T08:39:50;4.47;;;0.80;;
51358;SDS011;37448;51.588;7.248;2022-10-16T08:50:41;3.70;;;0.63;;
51358;SDS011;37448;51.588;7.248;2022-10-16T08:53:27;3.28;;;0.70;;
51358;SDS011;37448;51.588;7.248;2022-10-16T08:56:01;2.05;;;0.70;;
51358;SDS011;37448;51.588;7.248;2022-10-16T08:58:31;3.60;;;0.77;;
51358;SDS011;37448;51.588;7.248;2022-10-16T09:01:03;2.90;;;0.80;;
51358;SDS011;37448;51.588;7.248;2022-10-16T09:12:09;2.75;;;0.70;;
51358;SDS011;37448;51.588;7.248;2022-10-16T09:15:07;2.80;;;0.63;;
51358;SDS011;37448;51.588;7.248;2022-10-16T09:23:45;4.53;;;1.00;;
51358;SDS011;37448;51.588;7.248;2022-10-16T09:26:17;2.45;;;0.77;;
51358;SDS011;37448;51.588;7.248;2022-10-16T09:28:51;4.32;;;1.00;;
51358;SDS011;37448;51.588;7.248;2022-10-16T09:31:22;5.13;;;1.00;;
51358;SDS011;37448;51.588;7.248;2022-10-16T09:33:54;4.10;;;1.15;;
51358;SDS011;37448;51.588;7.248;2022-10-16T09:36:28;2.53;;;0.82;;
51358;SDS011;37448;51.588;7.248;2022-10-16T09:39:02;4.72;;;1.10;;
51358;SDS011;37448;51.588;7.248;2022-10-16T09:41:35;5.20;;;1.00;;
51358;SDS011;37448;51.588;7.248;2022-10-16T09:44:26;3.65;;;0.77;;
51358;SDS011;37448;51.588;7.248;2022-10-16T09:47:05;2.60;;;0.73;;
51358;SDS011;37448;51.588;7.248;2022-10-16T09:49:54;4.10;;;1.02;;
51358;SDS011;37448;51.588;7.248;2022-10-16T09:52:26;4.07;;;0.80;;
51358;SDS011;37448;51.588;7.248;2022-10-16T09:54:57;5.25;;;0.90;;
51358;SDS011;37448;51.588;7.248;2022-10-16T09:57:29;3.63;;;0.98;;
51358;SDS011;37448;51.588;7.248;2022-10-16T10:00:00;3.55;;;0.85;;
51358;SDS011;37448;51.588;7.248;2022-10-16T10:02:38;5.20;;;0.90;;
51358;SDS011;37448;51.588;7.248;2022-10-16T10:05:17;3.40;;;0.85;;
51358;SDS011;37448;51.588;7.248;2022-10-16T10:10:28;5.28;;;1.15;;
51358;SDS011;37448;51.588;7.248;2022-10-16T10:13:00;5.30;;;0.80;;
51358;SDS011;37448;51.588;7.248;2022-10-16T10:15:33;6.95;;;1.40;;
51358;SDS011;37448;51.588;7.248;2022-10-16T10:18:16;3.13;;;0.73;;
51358;SDS011;37448;51.588;7.248;2022-10-16T10:20:58;5.50;;;0.90;;
51358;SDS011;37448;51.588;7.248;2022-10-16T10:23:30;4.93;;;1.10;;
51358;SDS011;37448;51.588;7.248;2022-10-16T10:26:04;4.55;;;1.08;;
51358;SDS011;37448;51.588;7.248;2022-10-16T10:37:20;2.85;;;0.77;;
51358;SDS011;37448;51.588;7.248;2022-10-16T10:42:53;4.32;;;1.10;;
51358;SDS011;37448;51.588;7.248;2022-10-16T10:45:51;3.80;;;0.90;;
51358;SDS011;37448;51.588;7.248;2022-10-16T10:54:07;3.15;;;1.35;;
51358;SDS011;37448;51.588;7.248;2022-10-16T10:57:02;4.50;;;1.15;;
51358;SDS011;37448;51.588;7.248;2022-10-16T11:02:41;5.75;;;1.63;;
51358;SDS011;37448;51.588;7.248;2022-10-16T11:07:58;3.15;;;0.98;;
51358;SDS011;37448;51.588;7.248;2022-10-16T11:16:08;3.20;;;1.58;;
51358;SDS011;37448;51.588;7.248;2022-10-16T11:18:49;2.88;;;1.20;;
51358;SDS011;37448;51.588;7.248;2022-10-16T11:21:26;4.10;;;0.90;;
51358;SDS011;37448;51.588;7.248;2022-10-16T11:24:16;3.58;;;1.42;;
51358;SDS011;37448;51.588;7.248;2022-10-16T11:26:53;5.63;;;1.25;;
51358;SDS011;37448;51.588;7.248;2022-10-16T11:29:26;2.55;;;1.00;;
51358;SDS011;37448;51.588;7.248;2022-10-16T11:32:05;3.13;;;0.88;;
51358;SDS011;37448;51.588;7.248;2022-10-16T11:34:44;3.95;;;1.15;;
51358;SDS011;37448;51.588;7.248;2022-10-16T11:37:31;3.97;;;1.30;;
51358;SDS011;37448;51.588;7.248;2022-10-16T11:40:18;4.00;;;1.00;;
51358;SDS011;37448;51.588;7.248;2022-10-16T11:43:02;2.42;;;1.00;;
51358;SDS011;37448;51.588;7.248;2022-10-16T11:45:45;2.47;;;0.90;;
51358;SDS011;37448;51.588;7.248;2022-10-16T11:51:14;4.22;;;1.02;;
51358;SDS011;37448;51.588;7.248;2022-10-16T11:56:46;9.30;;;1.00;;
51358;SDS011;37448;51.588;7.248;2022-10-16T11:59:24;2.15;;;0.88;;
51358;SDS011;37448;51.588;7.248;2022-10-16T12:04:41;5.07;;;1.23;;
51358;SDS011;37448;51.588;7.248;2022-10-16T12:07:17;5.03;;;0.90;;
51358;SDS011;37448;51.588;7.248;2022-10-16T12:09:52;3.75;;;0.90;;
51358;SDS011;37448;51.588;7.248;2022-10-16T12:12:27;2.38;;;0.90;;
51358;SDS011;37448;51.588;7.248;2022-10-16T12:17:58;2.50;;;0.80;;
51358;SDS011;37448;51.588;7.248;2022-10-16T12:20:30;2.60;;;0.90;;
51358;SDS011;37448;51.588;7.248;2022-10-16T12:23:03;3.42;;;1.08;;
51358;SDS011;37448;51.588;7.248;2022-10-16T12:25:35;2.88;;;1.15;;
51358;SDS011;37448;51.588;7.248;2022-10-16T12:28:21;6.47;;;1.10;;
51358;SDS011;37448;51.588;7.248;2022-10-16T12:30:57;5.25;;;1.17;;
51358;SDS011;37448;51.588;7.248;2022-10-16T12:33:30;4.05;;;1.00;;
51358;SDS011;37448;51.588;7.248;2022-10-16T12:36:48;2.60;;;0.80;;
51358;SDS011;37448;51.588;7.248;2022-10-16T12:39:02;4.07;;;1.13;;
51358;SDS011;37448;51.588;7.248;2022-10-16T12:41:34;3.58;;;0.88;;
51358;SDS011;37448;51.588;7.248;2022-10-16T12:44:05;2.47;;;0.95;;
51358;SDS011;37448;51.588;7.248;2022-10-16T12:46:51;2.95;;;1.10;;
51358;SDS011;37448;51.588;7.248;2022-10-16T12:49:22;4.70;;;1.00;;
51358;SDS011;37448;51.588;7.248;2022-10-16T12:52:01;3.30;;;0.75;;
51358;SDS011;37448;51.588;7.248;2022-10-16T12:54:35;3.53;;;1.05;;
51358;SDS011;37448;51.588;7.248;2022-10-16T13:03:06;6.40;;;1.65;;
51358;SDS011;37448;51.588;7.248;2022-10-16T13:11:25;4.32;;;1.25;;
51358;SDS011;37448;51.588;7.248;2022-10-16T13:14:24;3.88;;;1.00;;
51358;SDS011;37448;51.588;7.248;2022-10-16T13:28:27;4.72;;;1.27;;
51358;SDS011;37448;51.588;7.248;2022-10-16T13:31:00;7.68;;;1.23;;
51358;SDS011;37448;51.588;7.248;2022-10-16T13:33:35;4.50;;;1.77;;
51358;SDS011;37448;51.588;7.248;2022-10-16T13:36:18;6.10;;;1.17;;
51358;SDS011;37448;51.588;7.248;2022-10-16T13:44:46;3.58;;;1.38;;
51358;SDS011;37448;51.588;7.248;2022-10-16T13:47:20;4.90;;;1.25;;
51358;SDS011;37448;51.588;7.248;2022-10-16T13:52:35;7.00;;;1.67;;
51358;SDS011;37448;51.588;7.248;2022-10-16T13:55:13;3.92;;;1.15;;
51358;SDS011;37448;51.588;7.248;2022-10-16T13:57:45;4.25;;;1.00;;
51358;SDS011;37448;51.588;7.248;2022-10-16T14:00:19;4.68;;;1.00;;
51358;SDS011;37448;51.588;7.248;2022-10-16T14:02:53;5.75;;;0.80;;
51358;SDS011;37448;51.588;7.248;2022-10-16T14:05:28;5.72;;;1.00;;
51358;SDS011;37448;51.588;7.248;2022-10-16T14:07:59;2.15;;;0.57;;
51358;SDS011;37448;51.588;7.248;2022-10-16T14:10:30;5.28;;;0.93;;
51358;SDS011;37448;51.588;7.248;2022-10-16T14:13:03;2.40;;;0.60;;
51358;SDS011;37448;51.588;7.248;2022-10-16T14:15:36;3.55;;;1.08;;
51358;SDS011;37448;51.588;7.248;2022-10-16T14:18:07;1.83;;;0.52;;
51358;SDS011;37448;51.588;7.248;2022-10-16T14:20:44;4.65;;;1.17;;
51358;SDS011;37448;51.588;7.248;2022-10-16T14:23:35;2.08;;;0.68;;
51358;SDS011;37448;51.588;7.248;2022-10-16T14:33:54;4.40;;;1.10;;
51358;SDS011;37448;51.588;7.248;2022-10-16T14:36:25;2.10;;;0.52;;
51358;SDS011;37448;51.588;7.248;2022-10-16T14:38:58;2.90;;;0.68;;
51358;SDS011;37448;51.588;7.248;2022-10-16T14:41:35;1.92;;;0.70;;
51358;SDS011;37448;51.588;7.248;2022-10-16T14:46:44;2.35;;;0.70;;
51358;SDS011;37448;51.588;7.248;2022-10-16T14:49:18;2.80;;;0.70;;
51358;SDS011;37448;51.588;7.248;2022-10-16T14:51:50;4.35;;;1.45;;
51358;SDS011;37448;51.588;7.248;2022-10-16T14:54:21;2.17;;;0.70;;
51358;SDS011;37448;51.588;7.248;2022-10-16T14:56:53;2.03;;;0.70;;
51358;SDS011;37448;51.588;7.248;2022-10-16T14:59:46;2.95;;;0.80;;
51358;SDS011;37448;51.588;7.248;2022-10-16T15:02:33;5.57;;;1.45;;
51358;SDS011;37448;51.588;7.248;2022-10-16T15:05:20;2.50;;;0.60;;
51358;SDS011;37448;51.588;7.248;2022-10-16T15:07:54;3.65;;;1.02;;
51358;SDS011;37448;51.588;7.248;2022-10-16T15:10:25;4.85;;;0.70;;
51358;SDS011;37448;51.588;7.248;2022-10-16T15:12:58;4.22;;;0.80;;
51358;SDS011;37448;51.588;7.248;2022-10-16T15:18:11;2.80;;;0.75;;
51358;SDS011;37448;51.588;7.248;2022-10-16T15:20:42;4.65;;;1.02;;
51358;SDS011;37448;51.588;7.248;2022-10-16T15:23:17;4.85;;;0.90;;
51358;SDS011;37448;51.588;7.248;2022-10-16T15:25:52;4.30;;;0.95;;
51358;SDS011;37448;51.588;7.248;2022-10-16T15:28:24;4.82;;;1.13;;
51358;SDS011;37448;51.588;7.248;2022-10-16T15:30:55;3.65;;;0.68;;
51358;SDS011;37448;51.588;7.248;2022-10-16T15:33:27;2.55;;;0.70;;
51358;SDS011;37448;51.588;7.248;2022-10-16T15:36:02;3.35;;;0.90;;
51358;SDS011;37448;51.588;7.248;2022-10-16T15:38:33;3.63;;;1.00;;
51358;SDS011;37448;51.588;7.248;2022-10-16T15:41:04;2.88;;;0.60;;
51358;SDS011;37448;51.588;7.248;2022-10-16T15:43:34;5.28;;;0.90;;
51358;SDS011;37448;51.588;7.248;2022-10-16T15:46:06;2.63;;;1.25;;
51358;SDS011;37448;51.588;7.248;2022-10-16T15:48:40;1.92;;;0.88;;
51358;SDS011;37448;51.588;7.248;2022-10-16T15:51:10;4.80;;;0.90;;
51358;SDS011;37448;51.588;7.248;2022-10-16T15:53:40;3.00;;;0.93;;
51358;SDS011;37448;51.588;7.248;2022-10-16T15:56:11;3.90;;;1.00;;
51358;SDS011;37448;51.588;7.248;2022-10-16T15:58:42;5.18;;;1.25;;
51358;SDS011;37448;51.588;7.248;2022-10-16T16:01:13;4.85;;;0.95;;
51358;SDS011;37448;51.588;7.248;2022-10-16T16:03:44;3.65;;;1.27;;
51358;SDS011;37448;51.588;7.248;2022-10-16T16:06:14;4.65;;;1.10;;
51358;SDS011;37448;51.588;7.248;2022-10-16T16:08:45;2.72;;;0.80;;
51358;SDS011;37448;51.588;7.248;2022-10-16T16:11:16;2.25;;;0.85;;
51358;SDS011;37448;51.588;7.248;2022-10-16T16:13:47;2.83;;;1.52;;
51358;SDS011;37448;51.588;7.248;2022-10-16T16:16:17;4.43;;;1.10;;
51358;SDS011;37448;51.588;7.248;2022-10-16T16:18:52;4.28;;;1.45;;
51358;SDS011;37448;51.588;7.248;2022-10-16T16:21:22;5.30;;;1.23;;
51358;SDS011;37448;51.588;7.248;2022-10-16T16:23:53;4.40;;;1.33;;
51358;SDS011;37448;51.588;7.248;2022-10-16T16:26:24;7.47;;;1.55;;
51358;SDS011;37448;51.588;7.248;2022-10-16T16:29:03;7.90;;;2.45;;
51358;SDS011;37448;51.588;7.248;2022-10-16T16:31:33;8.27;;;3.08;;
51358;SDS011;37448;51.588;7.248;2022-10-16T16:34:04;7.35;;;3.17;;
51358;SDS011;37448;51.588;7.248;2022-10-16T16:36:35;5.68;;;2.33;;
51358;SDS011;37448;51.588;7.248;2022-10-16T16:39:06;6.00;;;3.08;;
51358;SDS011;37448;51.588;7.248;2022-10-16T16:41:37;8.20;;;3.40;;
51358;SDS011;37448;51.588;7.248;2022-10-16T16:44:08;6.22;;;2.40;;
51358;SDS011;37448;51.588;7.248;2022-10-16T16:46:40;5.30;;;1.90;;
51358;SDS011;37448;51.588;7.248;2022-10-16T16:49:12;5.55;;;2.40;;
51358;SDS011;37448;51.588;7.248;2022-10-16T16:51:44;5.97;;;2.08;;
51358;SDS011;37448;51.588;7.248;2022-10-16T16:54:15;7.18;;;2.80;;
51358;SDS011;37448;51.588;7.248;2022-10-16T16:56:45;8.50;;;3.50;;
51358;SDS011;37448;51.588;7.248;2022-10-16T16:59:17;8.27;;;3.13;;
51358;SDS011;37448;51.588;7.248;2022-10-16T17:01:49;8.65;;;2.70;;
51358;SDS011;37448;51.588;7.248;2022-10-16T17:04:21;5.28;;;2.10;;
51358;SDS011;37448;51.588;7.248;2022-10-16T17:06:55;4.53;;;2.00;;
51358;SDS011;37448;51.588;7.248;2022-10-16T17:09:25;6.13;;;2.25;;
51358;SDS011;37448;51.588;7.248;2022-10-16T17:12:02;12.13;;;3.38;;
51358;SDS011;37448;51.588;7.248;2022-10-16T17:14:33;8.68;;;3.90;;
51358;SDS011;37448;51.588;7.248;2022-10-16T17:17:03;8.77;;;4.10;;
51358;SDS011;37448;51.588;7.248;2022-10-16T17:22:06;9.25;;;4.50;;
51358;SDS011;37448;51.588;7.248;2022-10-16T17:24:37;14.43;;;6.55;;